sensor_id;sensor_type;location;lat;lon;timestamp;temperature;humidity
64599;SHT31;51008;51.504;11.548;2023-04-06T00:04:39;-1.71;83.73
64599;SHT31;51008;51.504;11.548;2023-04-06T00:09:40;-1.66;83.93
64599;SHT31;51008;51.504;11.548;2023-04-06T00:14:41;-1.62;83.88
64599;SHT31;51008;51.504;11.548;2023-04-06T00:19:42;-1.64;83.56
64599;SHT31;51008;51.504;11.548;2023-04-06T00:24:43;-1.64;83.65
64599;SHT31;51008;51.504;11.548;2023-04-06T00:29:44;-1.67;83.70
64599;SHT31;51008;51.504;11.548;2023-04-06T00:34:45;-1.67;83.81
64599;SHT31;51008;51.504;11.548;2023-04-06T00:39:46;-1.68;83.61
64599;SHT31;51008;51.504;11.548;2023-04-06T00:44:47;-1.85;83.66
64599;SHT31;51008;51.504;11.548;2023-04-06T00:49:48;-1.87;84.30
64599;SHT31;51008;51.504;11.548;2023-04-06T00:54:50;-1.84;84.35
64599;SHT31;51008;51.504;11.548;2023-04-06T00:59:53;-1.88;84.08
64599;SHT31;51008;51.504;11.548;2023-04-06T01:04:54;-1.92;84.12
64599;SHT31;51008;51.504;11.548;2023-04-06T01:10:01;-1.88;84.77
64599;SHT31;51008;51.504;11.548;2023-04-06T01:15:05;-1.92;84.24
64599;SHT31;51008;51.504;11.548;2023-04-06T01:20:08;-1.95;84.12
64599;SHT31;51008;51.504;11.548;2023-04-06T01:25:10;-2.03;83.84
64599;SHT31;51008;51.504;11.548;2023-04-06T01:30:34;-2.02;83.97
64599;SHT31;51008;51.504;11.548;2023-04-06T01:35:42;-2.02;84.03
64599;SHT31;51008;51.504;11.548;2023-04-06T01:40:53;-1.99;84.29
64599;SHT31;51008;51.504;11.548;2023-04-06T01:45:56;-1.95;84.18
64599;SHT31;51008;51.504;11.548;2023-04-06T01:51:02;-1.94;84.40
64599;SHT31;51008;51.504;11.548;2023-04-06T01:56:07;-2.01;84.43
64599;SHT31;51008;51.504;11.548;2023-04-06T02:01:13;-2.03;84.62
64599;SHT31;51008;51.504;11.548;2023-04-06T02:06:25;-2.08;84.38
64599;SHT31;51008;51.504;11.548;2023-04-06T02:11:30;-2.18;84.59
64599;SHT31;51008;51.504;11.548;2023-04-06T02:16:31;-2.25;84.56
64599;SHT31;51008;51.504;11.548;2023-04-06T02:21:32;-2.29;84.63
64599;SHT31;51008;51.504;11.548;2023-04-06T02:26:33;-2.37;84.96
64599;SHT31;51008;51.504;11.548;2023-04-06T02:31:34;-2.33;85.06
64599;SHT31;51008;51.504;11.548;2023-04-06T02:36:36;-2.30;85.16
64599;SHT31;51008;51.504;11.548;2023-04-06T02:41:37;-2.30;85.03
64599;SHT31;51008;51.504;11.548;2023-04-06T02:46:39;-2.42;85.30
64599;SHT31;51008;51.504;11.548;2023-04-06T02:51:41;-2.46;85.29
64599;SHT31;51008;51.504;11.548;2023-04-06T02:56:59;-2.47;85.25
64599;SHT31;51008;51.504;11.548;2023-04-06T03:02:09;-2.40;85.21
64599;SHT31;51008;51.504;11.548;2023-04-06T03:07:11;-2.46;84.92
64599;SHT31;51008;51.504;11.548;2023-04-06T03:12:13;-2.44;85.35
64599;SHT31;51008;51.504;11.548;2023-04-06T03:17:34;-2.40;85.37
64599;SHT31;51008;51.504;11.548;2023-04-06T03:22:38;-2.50;85.23
64599;SHT31;51008;51.504;11.548;2023-04-06T03:27:43;-2.57;85.33
64599;SHT31;51008;51.504;11.548;2023-04-06T03:32:48;-2.61;85.23
64599;SHT31;51008;51.504;11.548;2023-04-06T03:37:50;-2.61;85.55
64599;SHT31;51008;51.504;11.548;2023-04-06T03:42:51;-2.64;85.36
64599;SHT31;51008;51.504;11.548;2023-04-06T03:47:53;-2.74;85.38
64599;SHT31;51008;51.504;11.548;2023-04-06T03:52:54;-2.78;85.60
64599;SHT31;51008;51.504;11.548;2023-04-06T03:57:55;-2.85;85.47
64599;SHT31;51008;51.504;11.548;2023-04-06T04:02:56;-2.82;85.96
64599;SHT31;51008;51.504;11.548;2023-04-06T04:07:57;-2.88;85.85
64599;SHT31;51008;51.504;11.548;2023-04-06T04:13:01;-2.91;86.29
64599;SHT31;51008;51.504;11.548;2023-04-06T04:18:02;-2.85;86.80
64599;SHT31;51008;51.504;11.548;2023-04-06T04:23:03;-2.82;86.89
64599;SHT31;51008;51.504;11.548;2023-04-06T04:28:07;-2.87;86.59
64599;SHT31;51008;51.504;11.548;2023-04-06T04:33:10;-2.87;86.72
64599;SHT31;51008;51.504;11.548;2023-04-06T04:38:11;-2.93;86.52
64599;SHT31;51008;51.504;11.548;2023-04-06T04:43:17;-2.98;86.67
64599;SHT31;51008;51.504;11.548;2023-04-06T04:48:19;-2.89;87.11
64599;SHT31;51008;51.504;11.548;2023-04-06T04:53:28;-2.88;86.86
64599;SHT31;51008;51.504;11.548;2023-04-06T04:58:35;-2.82;86.78
64599;SHT31;51008;51.504;11.548;2023-04-06T05:03:37;-2.75;87.12
64599;SHT31;51008;51.504;11.548;2023-04-06T05:08:41;-2.63;87.44
64599;SHT31;51008;51.504;11.548;2023-04-06T05:13:43;-2.42;88.02
64599;SHT31;51008;51.504;11.548;2023-04-06T05:18:50;-2.29;87.69
64599;SHT31;51008;51.504;11.548;2023-04-06T05:23:52;-2.12;88.01
64599;SHT31;51008;51.504;11.548;2023-04-06T05:28:53;-1.95;87.89
64599;SHT31;51008;51.504;11.548;2023-04-06T05:33:55;-1.80;87.49
64599;SHT31;51008;51.504;11.548;2023-04-06T05:39:09;-1.60;87.43
64599;SHT31;51008;51.504;11.548;2023-04-06T05:44:15;-1.36;87.53
64599;SHT31;51008;51.504;11.548;2023-04-06T05:49:21;-1.09;87.55
64599;SHT31;51008;51.504;11.548;2023-04-06T05:54:22;-0.83;87.41
64599;SHT31;51008;51.504;11.548;2023-04-06T05:59:25;-0.50;87.46
64599;SHT31;51008;51.504;11.548;2023-04-06T06:04:28;-0.18;87.58
64599;SHT31;51008;51.504;11.548;2023-04-06T06:09:29;0.11;87.50
64599;SHT31;51008;51.504;11.548;2023-04-06T06:14:52;0.54;86.84
64599;SHT31;51008;51.504;11.548;2023-04-06T06:19:54;0.89;83.20
64599;SHT31;51008;51.504;11.548;2023-04-06T06:24:55;1.31;81.03
64599;SHT31;51008;51.504;11.548;2023-04-06T06:29:57;1.76;79.13
64599;SHT31;51008;51.504;11.548;2023-04-06T06:34:59;2.22;79.65
64599;SHT31;51008;51.504;11.548;2023-04-06T06:40:03;2.73;78.32
64599;SHT31;51008;51.504;11.548;2023-04-06T06:45:07;3.05;76.21
64599;SHT31;51008;51.504;11.548;2023-04-06T06:50:08;3.28;75.02
64599;SHT31;51008;51.504;11.548;2023-04-06T06:55:10;3.44;74.09
64599;SHT31;51008;51.504;11.548;2023-04-06T07:00:13;3.90;74.60
64599;SHT31;51008;51.504;11.548;2023-04-06T07:05:16;4.23;73.70
64599;SHT31;51008;51.504;11.548;2023-04-06T07:10:17;4.68;71.40
64599;SHT31;51008;51.504;11.548;2023-04-06T07:15:18;5.33;69.54
64599;SHT31;51008;51.504;11.548;2023-04-06T07:20:19;6.10;68.01
64599;SHT31;51008;51.504;11.548;2023-04-06T07:25:21;6.84;65.85
64599;SHT31;51008;51.504;11.548;2023-04-06T07:30:22;7.12;62.63
64599;SHT31;51008;51.504;11.548;2023-04-06T07:35:24;7.06;64.12
64599;SHT31;51008;51.504;11.548;2023-04-06T07:40:26;7.10;62.48
64599;SHT31;51008;51.504;11.548;2023-04-06T07:45:28;7.24;62.88
64599;SHT31;51008;51.504;11.548;2023-04-06T07:50:31;7.59;62.18
64599;SHT31;51008;51.504;11.548;2023-04-06T07:55:32;8.13;62.37
64599;SHT31;51008;51.504;11.548;2023-04-06T08:00:33;8.45;60.96
64599;SHT31;51008;51.504;11.548;2023-04-06T08:05:34;9.17;61.24
64599;SHT31;51008;51.504;11.548;2023-04-06T08:10:35;9.76;58.96
64599;SHT31;51008;51.504;11.548;2023-04-06T08:15:36;9.93;58.03
64599;SHT31;51008;51.504;11.548;2023-04-06T08:20:37;10.60;56.57
64599;SHT31;51008;51.504;11.548;2023-04-06T08:25:38;10.79;55.70
64599;SHT31;51008;51.504;11.548;2023-04-06T08:30:40;10.84;47.96
64599;SHT31;51008;51.504;11.548;2023-04-06T08:35:41;11.87;45.19
64599;SHT31;51008;51.504;11.548;2023-04-06T08:40:42;11.76;45.31
64599;SHT31;51008;51.504;11.548;2023-04-06T08:45:43;12.25;43.25
64599;SHT31;51008;51.504;11.548;2023-04-06T08:50:44;12.20;43.29
64599;SHT31;51008;51.504;11.548;2023-04-06T08:55:46;12.76;43.08
64599;SHT31;51008;51.504;11.548;2023-04-06T09:00:47;11.73;41.40
64599;SHT31;51008;51.504;11.548;2023-04-06T09:05:48;11.56;41.60
64599;SHT31;51008;51.504;11.548;2023-04-06T09:10:49;11.65;46.03
64599;SHT31;51008;51.504;11.548;2023-04-06T09:16:04;12.25;44.06
64599;SHT31;51008;51.504;11.548;2023-04-06T09:21:07;13.00;42.92
64599;SHT31;51008;51.504;11.548;2023-04-06T09:26:09;12.83;44.85
64599;SHT31;51008;51.504;11.548;2023-04-06T09:31:15;12.59;42.54
64599;SHT31;51008;51.504;11.548;2023-04-06T09:36:16;11.86;41.39
64599;SHT31;51008;51.504;11.548;2023-04-06T09:41:25;12.10;41.41
64599;SHT31;51008;51.504;11.548;2023-04-06T09:46:27;12.64;41.54
64599;SHT31;51008;51.504;11.548;2023-04-06T09:51:31;13.34;42.17
64599;SHT31;51008;51.504;11.548;2023-04-06T10:01:48;12.57;44.71
64599;SHT31;51008;51.504;11.548;2023-04-06T10:06:51;12.70;45.81
64599;SHT31;51008;51.504;11.548;2023-04-06T10:11:52;12.35;41.16
64599;SHT31;51008;51.504;11.548;2023-04-06T10:16:53;12.38;41.20
64599;SHT31;51008;51.504;11.548;2023-04-06T10:21:57;12.91;41.65
64599;SHT31;51008;51.504;11.548;2023-04-06T10:27:01;14.07;43.37
64599;SHT31;51008;51.504;11.548;2023-04-06T10:32:02;13.65;38.63
64599;SHT31;51008;51.504;11.548;2023-04-06T10:37:14;14.05;36.81
64599;SHT31;51008;51.504;11.548;2023-04-06T10:42:15;13.32;39.05
64599;SHT31;51008;51.504;11.548;2023-04-06T10:47:17;12.79;41.23
64599;SHT31;51008;51.504;11.548;2023-04-06T10:52:18;12.35;42.22
64599;SHT31;51008;51.504;11.548;2023-04-06T10:57:29;12.72;38.24
64599;SHT31;51008;51.504;11.548;2023-04-06T11:02:30;13.19;41.23
64599;SHT31;51008;51.504;11.548;2023-04-06T11:07:31;13.25;40.73
64599;SHT31;51008;51.504;11.548;2023-04-06T11:12:32;13.74;40.99
64599;SHT31;51008;51.504;11.548;2023-04-06T11:17:35;13.65;39.95
64599;SHT31;51008;51.504;11.548;2023-04-06T11:22:36;13.90;39.29
64599;SHT31;51008;51.504;11.548;2023-04-06T11:27:37;14.52;38.85
64599;SHT31;51008;51.504;11.548;2023-04-06T11:32:43;14.62;36.24
64599;SHT31;51008;51.504;11.548;2023-04-06T11:37:44;14.66;36.01
64599;SHT31;51008;51.504;11.548;2023-04-06T11:42:52;14.97;35.73
64599;SHT31;51008;51.504;11.548;2023-04-06T11:47:58;15.33;36.93
64599;SHT31;51008;51.504;11.548;2023-04-06T11:53:00;14.26;36.55
64599;SHT31;51008;51.504;11.548;2023-04-06T11:58:01;13.93;39.74
64599;SHT31;51008;51.504;11.548;2023-04-06T12:03:02;13.84;38.98
64599;SHT31;51008;51.504;11.548;2023-04-06T12:08:03;13.71;40.59
64599;SHT31;51008;51.504;11.548;2023-04-06T12:13:04;13.10;38.22
64599;SHT31;51008;51.504;11.548;2023-04-06T12:18:05;12.95;40.71
64599;SHT31;51008;51.504;11.548;2023-04-06T12:23:06;12.90;39.73
64599;SHT31;51008;51.504;11.548;2023-04-06T12:28:07;13.28;40.89
64599;SHT31;51008;51.504;11.548;2023-04-06T12:33:08;12.84;37.61
64599;SHT31;51008;51.504;11.548;2023-04-06T12:38:09;12.97;38.17
64599;SHT31;51008;51.504;11.548;2023-04-06T12:43:10;13.16;37.79
64599;SHT31;51008;51.504;11.548;2023-04-06T12:48:11;13.36;38.71
64599;SHT31;51008;51.504;11.548;2023-04-06T12:53:12;13.42;35.62
64599;SHT31;51008;51.504;11.548;2023-04-06T12:58:13;13.15;34.64
64599;SHT31;51008;51.504;11.548;2023-04-06T13:03:14;12.95;36.36
64599;SHT31;51008;51.504;11.548;2023-04-06T13:08:16;12.94;37.33
64599;SHT31;51008;51.504;11.548;2023-04-06T13:13:20;13.12;39.29
64599;SHT31;51008;51.504;11.548;2023-04-06T13:18:21;13.07;39.20
64599;SHT31;51008;51.504;11.548;2023-04-06T13:23:26;12.93;39.88
64599;SHT31;51008;51.504;11.548;2023-04-06T13:28:28;12.55;39.21
64599;SHT31;51008;51.504;11.548;2023-04-06T13:33:30;12.41;37.88
64599;SHT31;51008;51.504;11.548;2023-04-06T13:38:31;12.72;38.01
64599;SHT31;51008;51.504;11.548;2023-04-06T13:43:33;12.70;39.39
64599;SHT31;51008;51.504;11.548;2023-04-06T13:48:34;12.53;41.67
64599;SHT31;51008;51.504;11.548;2023-04-06T13:53:35;12.69;40.82
64599;SHT31;51008;51.504;11.548;2023-04-06T13:58:38;12.62;40.62
64599;SHT31;51008;51.504;11.548;2023-04-06T14:03:40;12.56;39.50
64599;SHT31;51008;51.504;11.548;2023-04-06T14:08:41;12.77;40.53
64599;SHT31;51008;51.504;11.548;2023-04-06T14:13:42;12.69;36.79
64599;SHT31;51008;51.504;11.548;2023-04-06T14:18:43;12.67;39.54
64599;SHT31;51008;51.504;11.548;2023-04-06T14:23:45;12.60;39.40
64599;SHT31;51008;51.504;11.548;2023-04-06T14:28:47;12.36;39.03
64599;SHT31;51008;51.504;11.548;2023-04-06T14:33:48;12.66;38.75
64599;SHT31;51008;51.504;11.548;2023-04-06T14:38:49;12.73;40.49
64599;SHT31;51008;51.504;11.548;2023-04-06T14:43:51;12.63;39.74
64599;SHT31;51008;51.504;11.548;2023-04-06T14:48:54;12.59;40.29
64599;SHT31;51008;51.504;11.548;2023-04-06T14:53:56;12.53;41.09
64599;SHT31;51008;51.504;11.548;2023-04-06T14:58:58;12.48;40.98
64599;SHT31;51008;51.504;11.548;2023-04-06T15:03:59;12.45;38.74
64599;SHT31;51008;51.504;11.548;2023-04-06T15:09:00;12.41;40.71
64599;SHT31;51008;51.504;11.548;2023-04-06T15:14:01;12.32;41.16
64599;SHT31;51008;51.504;11.548;2023-04-06T15:19:02;12.28;38.71
64599;SHT31;51008;51.504;11.548;2023-04-06T15:24:03;12.28;40.35
64599;SHT31;51008;51.504;11.548;2023-04-06T15:29:04;12.15;40.25
64599;SHT31;51008;51.504;11.548;2023-04-06T15:34:06;12.02;39.77
64599;SHT31;51008;51.504;11.548;2023-04-06T15:39:07;12.07;39.75
64599;SHT31;51008;51.504;11.548;2023-04-06T15:44:08;11.93;40.12
64599;SHT31;51008;51.504;11.548;2023-04-06T15:49:09;11.81;39.98
64599;SHT31;51008;51.504;11.548;2023-04-06T15:54:10;11.69;40.53
64599;SHT31;51008;51.504;11.548;2023-04-06T15:59:11;11.73;40.19
64599;SHT31;51008;51.504;11.548;2023-04-06T16:04:12;11.63;41.63
64599;SHT31;51008;51.504;11.548;2023-04-06T16:09:13;11.48;42.86
64599;SHT31;51008;51.504;11.548;2023-04-06T16:14:14;11.34;41.15
64599;SHT31;51008;51.504;11.548;2023-04-06T16:19:15;11.32;41.83
64599;SHT31;51008;51.504;11.548;2023-04-06T16:24:16;11.27;41.90
64599;SHT31;51008;51.504;11.548;2023-04-06T16:29:17;11.04;42.12
64599;SHT31;51008;51.504;11.548;2023-04-06T16:34:18;10.99;44.76
64599;SHT31;51008;51.504;11.548;2023-04-06T16:39:19;10.79;44.14
64599;SHT31;51008;51.504;11.548;2023-04-06T16:44:20;10.62;44.54
64599;SHT31;51008;51.504;11.548;2023-04-06T16:49:21;10.46;46.39
64599;SHT31;51008;51.504;11.548;2023-04-06T16:54:22;10.38;47.66
64599;SHT31;51008;51.504;11.548;2023-04-06T16:59:23;10.22;49.36
64599;SHT31;51008;51.504;11.548;2023-04-06T17:04:24;9.94;48.63
64599;SHT31;51008;51.504;11.548;2023-04-06T17:09:26;9.75;50.94
64599;SHT31;51008;51.504;11.548;2023-04-06T17:14:27;9.45;52.08
64599;SHT31;51008;51.504;11.548;2023-04-06T17:19:28;9.16;52.93
64599;SHT31;51008;51.504;11.548;2023-04-06T17:24:29;8.87;52.71
64599;SHT31;51008;51.504;11.548;2023-04-06T17:29:30;8.69;53.63
64599;SHT31;51008;51.504;11.548;2023-04-06T17:34:34;8.58;53.96
64599;SHT31;51008;51.504;11.548;2023-04-06T17:39:35;8.34;53.62
64599;SHT31;51008;51.504;11.548;2023-04-06T17:44:36;8.00;54.22
64599;SHT31;51008;51.504;11.548;2023-04-06T17:49:37;7.87;54.06
64599;SHT31;51008;51.504;11.548;2023-04-06T17:54:38;7.71;53.53
64599;SHT31;51008;51.504;11.548;2023-04-06T17:59:39;7.65;53.55
64599;SHT31;51008;51.504;11.548;2023-04-06T18:04:40;7.67;53.43
64599;SHT31;51008;51.504;11.548;2023-04-06T18:09:41;7.61;53.51
64599;SHT31;51008;51.504;11.548;2023-04-06T18:14:42;7.55;53.12
64599;SHT31;51008;51.504;11.548;2023-04-06T18:19:43;7.37;54.99
64599;SHT31;51008;51.504;11.548;2023-04-06T18:24:44;7.23;55.01
64599;SHT31;51008;51.504;11.548;2023-04-06T18:29:45;7.02;56.46
64599;SHT31;51008;51.504;11.548;2023-04-06T18:34:46;6.85;56.89
64599;SHT31;51008;51.504;11.548;2023-04-06T18:39:47;6.64;57.28
64599;SHT31;51008;51.504;11.548;2023-04-06T18:44:48;6.37;57.91
64599;SHT31;51008;51.504;11.548;2023-04-06T18:49:50;6.30;57.85
64599;SHT31;51008;51.504;11.548;2023-04-06T18:54:50;6.23;57.66
64599;SHT31;51008;51.504;11.548;2023-04-06T18:59:51;6.16;57.93
64599;SHT31;51008;51.504;11.548;2023-04-06T19:04:52;6.05;58.54
64599;SHT31;51008;51.504;11.548;2023-04-06T19:09:53;5.95;58.58
64599;SHT31;51008;51.504;11.548;2023-04-06T19:14:54;5.89;58.25
64599;SHT31;51008;51.504;11.548;2023-04-06T19:19:55;5.77;58.95
64599;SHT31;51008;51.504;11.548;2023-04-06T19:24:57;5.77;59.55
64599;SHT31;51008;51.504;11.548;2023-04-06T19:29:58;5.68;60.64
64599;SHT31;51008;51.504;11.548;2023-04-06T19:35:00;5.61;61.30
64599;SHT31;51008;51.504;11.548;2023-04-06T19:40:01;5.43;62.59
64599;SHT31;51008;51.504;11.548;2023-04-06T19:45:06;5.29;63.57
64599;SHT31;51008;51.504;11.548;2023-04-06T19:50:08;5.27;63.63
64599;SHT31;51008;51.504;11.548;2023-04-06T19:55:10;5.20;63.56
64599;SHT31;51008;51.504;11.548;2023-04-06T20:00:11;5.18;63.37
64599;SHT31;51008;51.504;11.548;2023-04-06T20:05:13;5.11;63.97
64599;SHT31;51008;51.504;11.548;2023-04-06T20:10:13;5.07;64.30
64599;SHT31;51008;51.504;11.548;2023-04-06T20:15:15;5.08;64.48
64599;SHT31;51008;51.504;11.548;2023-04-06T20:20:16;4.99;64.65
64599;SHT31;51008;51.504;11.548;2023-04-06T20:25:18;4.98;64.77
64599;SHT31;51008;51.504;11.548;2023-04-06T20:30:19;4.96;64.81
64599;SHT31;51008;51.504;11.548;2023-04-06T20:35:20;4.89;65.03
64599;SHT31;51008;51.504;11.548;2023-04-06T20:40:21;4.77;65.59
64599;SHT31;51008;51.504;11.548;2023-04-06T20:45:23;4.52;65.78
64599;SHT31;51008;51.504;11.548;2023-04-06T20:50:25;4.33;67.05
64599;SHT31;51008;51.504;11.548;2023-04-06T20:55:26;4.28;67.66
64599;SHT31;51008;51.504;11.548;2023-04-06T21:00:27;4.21;67.57
64599;SHT31;51008;51.504;11.548;2023-04-06T21:05:29;4.18;67.80
64599;SHT31;51008;51.504;11.548;2023-04-06T21:10:30;4.06;68.16
64599;SHT31;51008;51.504;11.548;2023-04-06T21:15:31;3.94;68.60
64599;SHT31;51008;51.504;11.548;2023-04-06T21:20:32;3.83;68.89
64599;SHT31;51008;51.504;11.548;2023-04-06T21:25:36;3.71;68.77
64599;SHT31;51008;51.504;11.548;2023-04-06T21:30:37;3.62;69.81
64599;SHT31;51008;51.504;11.548;2023-04-06T21:35:39;3.56;69.59
64599;SHT31;51008;51.504;11.548;2023-04-06T21:40:40;3.46;69.61
64599;SHT31;51008;51.504;11.548;2023-04-06T21:45:47;3.31;70.05
64599;SHT31;51008;51.504;11.548;2023-04-06T21:50:48;3.22;70.49
64599;SHT31;51008;51.504;11.548;2023-04-06T21:55:49;3.19;70.78
64599;SHT31;51008;51.504;11.548;2023-04-06T22:00:50;3.09;70.70
64599;SHT31;51008;51.504;11.548;2023-04-06T22:05:51;2.93;70.84
64599;SHT31;51008;51.504;11.548;2023-04-06T22:10:52;2.81;71.23
64599;SHT31;51008;51.504;11.548;2023-04-06T22:15:53;2.67;71.57
64599;SHT31;51008;51.504;11.548;2023-04-06T22:20:54;2.49;72.72
64599;SHT31;51008;51.504;11.548;2023-04-06T22:25:55;2.36;73.24
64599;SHT31;51008;51.504;11.548;2023-04-06T22:30:56;2.32;73.69
64599;SHT31;51008;51.504;11.548;2023-04-06T22:35:57;2.27;74.36
64599;SHT31;51008;51.504;11.548;2023-04-06T22:40:58;2.15;74.81
64599;SHT31;51008;51.504;11.548;2023-04-06T22:45:59;2.07;74.81
64599;SHT31;51008;51.504;11.548;2023-04-06T22:51:01;1.83;74.69
64599;SHT31;51008;51.504;11.548;2023-04-06T22:56:02;1.80;75.89
64599;SHT31;51008;51.504;11.548;2023-04-06T23:01:03;1.69;76.44
64599;SHT31;51008;51.504;11.548;2023-04-06T23:06:04;1.62;76.55
64599;SHT31;51008;51.504;11.548;2023-04-06T23:11:05;1.52;76.84
64599;SHT31;51008;51.504;11.548;2023-04-06T23:16:07;1.31;77.66
64599;SHT31;51008;51.504;11.548;2023-04-06T23:21:08;1.34;77.69
64599;SHT31;51008;51.504;11.548;2023-04-06T23:26:09;1.20;77.91
64599;SHT31;51008;51.504;11.548;2023-04-06T23:31:10;1.05;77.32
64599;SHT31;51008;51.504;11.548;2023-04-06T23:36:11;0.97;78.34
64599;SHT31;51008;51.504;11.548;2023-04-06T23:41:13;0.85;78.61
64599;SHT31;51008;51.504;11.548;2023-04-06T23:46:15;0.72;78.85
64599;SHT31;51008;51.504;11.548;2023-04-06T23:51:16;0.75;79.76
64599;SHT31;51008;51.504;11.548;2023-04-06T23:56:17;0.65;79.32
